sensor_id;sensor_type;location;lat;lon;timestamp;P1;durP1;ratioP1;P2;durP2;ratioP2
69629;SDS011;56857;52.212;5.496;2023-09-19T00:01:19;9.20;;;2.20;;
69629;SDS011;56857;52.212;5.496;2023-09-19T00:03:47;9.65;;;2.03;;
69629;SDS011;56857;52.212;5.496;2023-09-19T00:06:12;8.63;;;2.03;;
69629;SDS011;56857;52.212;5.496;2023-09-19T00:08:38;6.72;;;2.47;;
69629;SDS011;56857;52.212;5.496;2023-09-19T00:11:03;8.90;;;2.58;;
69629;SDS011;56857;52.212;5.496;2023-09-19T00:13:28;7.80;;;1.83;;
69629;SDS011;56857;52.212;5.496;2023-09-19T00:15:54;11.15;;;2.30;;
69629;SDS011;56857;52.212;5.496;2023-09-19T00:18:19;11.90;;;2.72;;
69629;SDS011;56857;52.212;5.496;2023-09-19T00:20:45;8.43;;;2.35;;
69629;SDS011;56857;52.212;5.496;2023-09-19T00:23:10;12.20;;;2.25;;
69629;SDS011;56857;52.212;5.496;2023-09-19T00:25:36;9.10;;;2.53;;
69629;SDS011;56857;52.212;5.496;2023-09-19T00:28:01;10.48;;;2.33;;
69629;SDS011;56857;52.212;5.496;2023-09-19T00:30:27;8.48;;;2.15;;
69629;SDS011;56857;52.212;5.496;2023-09-19T00:32:52;8.63;;;2.30;;
69629;SDS011;56857;52.212;5.496;2023-09-19T00:35:17;8.77;;;2.20;;
69629;SDS011;56857;52.212;5.496;2023-09-19T00:37:43;8.77;;;2.10;;
69629;SDS011;56857;52.212;5.496;2023-09-19T00:40:08;13.23;;;2.73;;
69629;SDS011;56857;52.212;5.496;2023-09-19T00:42:35;9.13;;;2.05;;
69629;SDS011;56857;52.212;5.496;2023-09-19T00:45:00;11.40;;;2.97;;
69629;SDS011;56857;52.212;5.496;2023-09-19T00:47:25;7.90;;;2.13;;
69629;SDS011;56857;52.212;5.496;2023-09-19T00:49:53;8.85;;;1.85;;
69629;SDS011;56857;52.212;5.496;2023-09-19T00:52:19;9.35;;;2.35;;
69629;SDS011;56857;52.212;5.496;2023-09-19T00:54:44;9.85;;;1.92;;
69629;SDS011;56857;52.212;5.496;2023-09-19T00:57:10;6.70;;;2.00;;
69629;SDS011;56857;52.212;5.496;2023-09-19T00:59:35;5.15;;;1.70;;
69629;SDS011;56857;52.212;5.496;2023-09-19T01:02:02;6.65;;;1.85;;
69629;SDS011;56857;52.212;5.496;2023-09-19T01:04:28;12.32;;;2.10;;
69629;SDS011;56857;52.212;5.496;2023-09-19T01:06:53;11.10;;;1.90;;
69629;SDS011;56857;52.212;5.496;2023-09-19T01:09:21;7.80;;;1.95;;
69629;SDS011;56857;52.212;5.496;2023-09-19T01:11:47;10.77;;;1.80;;
69629;SDS011;56857;52.212;5.496;2023-09-19T01:15:04;9.18;;;1.90;;
69629;SDS011;56857;52.212;5.496;2023-09-19T01:31:31;9.50;;;2.03;;
69629;SDS011;56857;52.212;5.496;2023-09-19T01:34:00;6.40;;;2.10;;
69629;SDS011;56857;52.212;5.496;2023-09-19T01:36:28;6.63;;;1.73;;
69629;SDS011;56857;52.212;5.496;2023-09-19T01:38:55;7.88;;;1.90;;
69629;SDS011;56857;52.212;5.496;2023-09-19T01:41:25;5.05;;;1.50;;
69629;SDS011;56857;52.212;5.496;2023-09-19T01:43:57;8.32;;;1.60;;
69629;SDS011;56857;52.212;5.496;2023-09-19T01:46:33;7.45;;;2.03;;
69629;SDS011;56857;52.212;5.496;2023-09-19T01:54:16;10.32;;;1.85;;
69629;SDS011;56857;52.212;5.496;2023-09-19T01:56:50;6.22;;;1.90;;
69629;SDS011;56857;52.212;5.496;2023-09-19T01:59:25;12.15;;;2.35;;
69629;SDS011;56857;52.212;5.496;2023-09-19T02:01:58;10.48;;;2.22;;
69629;SDS011;56857;52.212;5.496;2023-09-19T02:04:25;8.93;;;2.72;;
69629;SDS011;56857;52.212;5.496;2023-09-19T02:06:51;6.35;;;2.38;;
69629;SDS011;56857;52.212;5.496;2023-09-19T02:09:16;8.60;;;2.13;;
69629;SDS011;56857;52.212;5.496;2023-09-19T02:11:42;8.43;;;2.22;;
69629;SDS011;56857;52.212;5.496;2023-09-19T02:14:07;10.77;;;2.45;;
69629;SDS011;56857;52.212;5.496;2023-09-19T02:16:33;7.75;;;2.03;;
69629;SDS011;56857;52.212;5.496;2023-09-19T02:18:58;7.00;;;2.10;;
69629;SDS011;56857;52.212;5.496;2023-09-19T02:21:24;10.37;;;2.30;;
69629;SDS011;56857;52.212;5.496;2023-09-19T02:23:49;9.75;;;2.25;;
69629;SDS011;56857;52.212;5.496;2023-09-19T02:26:14;7.40;;;2.38;;
69629;SDS011;56857;52.212;5.496;2023-09-19T02:28:40;11.77;;;2.30;;
69629;SDS011;56857;52.212;5.496;2023-09-19T02:31:05;8.85;;;2.30;;
69629;SDS011;56857;52.212;5.496;2023-09-19T02:33:30;9.35;;;2.38;;
69629;SDS011;56857;52.212;5.496;2023-09-19T02:35:56;11.20;;;2.22;;
69629;SDS011;56857;52.212;5.496;2023-09-19T02:38:21;13.50;;;2.97;;
69629;SDS011;56857;52.212;5.496;2023-09-19T02:40:47;10.67;;;2.30;;
69629;SDS011;56857;52.212;5.496;2023-09-19T02:43:12;13.53;;;3.27;;
69629;SDS011;56857;52.212;5.496;2023-09-19T02:45:38;11.38;;;2.92;;
69629;SDS011;56857;52.212;5.496;2023-09-19T02:48:03;13.93;;;2.95;;
69629;SDS011;56857;52.212;5.496;2023-09-19T02:50:28;13.70;;;2.60;;
69629;SDS011;56857;52.212;5.496;2023-09-19T02:52:54;15.02;;;2.60;;
69629;SDS011;56857;52.212;5.496;2023-09-19T02:55:19;14.83;;;2.40;;
69629;SDS011;56857;52.212;5.496;2023-09-19T02:57:45;13.63;;;2.78;;
69629;SDS011;56857;52.212;5.496;2023-09-19T03:00:12;14.98;;;2.90;;
69629;SDS011;56857;52.212;5.496;2023-09-19T03:02:37;10.77;;;2.42;;
69629;SDS011;56857;52.212;5.496;2023-09-19T03:05:03;11.98;;;2.25;;
69629;SDS011;56857;52.212;5.496;2023-09-19T03:07:29;10.15;;;2.60;;
69629;SDS011;56857;52.212;5.496;2023-09-19T03:09:55;16.73;;;2.80;;
69629;SDS011;56857;52.212;5.496;2023-09-19T03:12:20;11.48;;;2.22;;
69629;SDS011;56857;52.212;5.496;2023-09-19T03:14:45;9.57;;;2.58;;
69629;SDS011;56857;52.212;5.496;2023-09-19T03:17:11;10.90;;;2.10;;
69629;SDS011;56857;52.212;5.496;2023-09-19T03:19:36;12.05;;;2.20;;
69629;SDS011;56857;52.212;5.496;2023-09-19T03:22:02;10.73;;;2.65;;
69629;SDS011;56857;52.212;5.496;2023-09-19T03:24:27;9.30;;;2.50;;
69629;SDS011;56857;52.212;5.496;2023-09-19T03:26:53;20.40;;;3.00;;
69629;SDS011;56857;52.212;5.496;2023-09-19T03:29:18;13.55;;;2.60;;
69629;SDS011;56857;52.212;5.496;2023-09-19T03:31:43;7.90;;;2.67;;
69629;SDS011;56857;52.212;5.496;2023-09-19T03:34:09;10.60;;;2.42;;
69629;SDS011;56857;52.212;5.496;2023-09-19T03:36:34;14.55;;;2.53;;
69629;SDS011;56857;52.212;5.496;2023-09-19T03:39:00;14.70;;;2.35;;
69629;SDS011;56857;52.212;5.496;2023-09-19T03:41:25;12.63;;;2.55;;
69629;SDS011;56857;52.212;5.496;2023-09-19T03:43:51;20.98;;;2.70;;
69629;SDS011;56857;52.212;5.496;2023-09-19T03:46:16;13.88;;;2.35;;
69629;SDS011;56857;52.212;5.496;2023-09-19T03:48:42;11.00;;;2.38;;
69629;SDS011;56857;52.212;5.496;2023-09-19T03:51:07;13.95;;;2.47;;
69629;SDS011;56857;52.212;5.496;2023-09-19T03:53:32;13.85;;;2.78;;
69629;SDS011;56857;52.212;5.496;2023-09-19T03:55:58;15.93;;;2.67;;
69629;SDS011;56857;52.212;5.496;2023-09-19T03:58:23;13.45;;;2.30;;
69629;SDS011;56857;52.212;5.496;2023-09-19T04:00:48;16.10;;;2.50;;
69629;SDS011;56857;52.212;5.496;2023-09-19T04:03:13;12.68;;;2.40;;
69629;SDS011;56857;52.212;5.496;2023-09-19T04:05:39;10.35;;;2.05;;
69629;SDS011;56857;52.212;5.496;2023-09-19T04:08:04;10.23;;;2.22;;
69629;SDS011;56857;52.212;5.496;2023-09-19T04:10:29;12.88;;;2.38;;
69629;SDS011;56857;52.212;5.496;2023-09-19T04:12:55;14.23;;;2.67;;
69629;SDS011;56857;52.212;5.496;2023-09-19T04:15:21;16.00;;;3.08;;
69629;SDS011;56857;52.212;5.496;2023-09-19T04:17:47;13.68;;;2.40;;
69629;SDS011;56857;52.212;5.496;2023-09-19T04:20:13;11.90;;;2.33;;
69629;SDS011;56857;52.212;5.496;2023-09-19T04:22:38;10.10;;;2.28;;
69629;SDS011;56857;52.212;5.496;2023-09-19T04:25:04;14.07;;;2.60;;
69629;SDS011;56857;52.212;5.496;2023-09-19T04:27:29;14.43;;;2.67;;
69629;SDS011;56857;52.212;5.496;2023-09-19T04:29:54;12.60;;;2.77;;
69629;SDS011;56857;52.212;5.496;2023-09-19T04:32:20;11.67;;;2.50;;
69629;SDS011;56857;52.212;5.496;2023-09-19T04:34:45;14.65;;;2.72;;
69629;SDS011;56857;52.212;5.496;2023-09-19T04:37:10;12.70;;;2.38;;
69629;SDS011;56857;52.212;5.496;2023-09-19T04:39:35;11.90;;;2.40;;
69629;SDS011;56857;52.212;5.496;2023-09-19T04:42:01;18.30;;;3.20;;
69629;SDS011;56857;52.212;5.496;2023-09-19T04:44:26;14.55;;;2.60;;
69629;SDS011;56857;52.212;5.496;2023-09-19T04:46:51;10.17;;;2.43;;
69629;SDS011;56857;52.212;5.496;2023-09-19T04:49:17;15.68;;;2.53;;
69629;SDS011;56857;52.212;5.496;2023-09-19T04:51:42;12.03;;;2.33;;
69629;SDS011;56857;52.212;5.496;2023-09-19T04:54:07;14.98;;;2.88;;
69629;SDS011;56857;52.212;5.496;2023-09-19T04:56:33;10.40;;;2.33;;
69629;SDS011;56857;52.212;5.496;2023-09-19T04:58:58;8.17;;;2.10;;
69629;SDS011;56857;52.212;5.496;2023-09-19T05:01:24;8.95;;;2.13;;
69629;SDS011;56857;52.212;5.496;2023-09-19T05:03:50;10.45;;;2.13;;
69629;SDS011;56857;52.212;5.496;2023-09-19T05:06:16;15.38;;;2.83;;
69629;SDS011;56857;52.212;5.496;2023-09-19T05:08:41;12.87;;;2.50;;
69629;SDS011;56857;52.212;5.496;2023-09-19T05:11:06;15.43;;;2.33;;
69629;SDS011;56857;52.212;5.496;2023-09-19T05:13:32;8.85;;;2.42;;
69629;SDS011;56857;52.212;5.496;2023-09-19T05:15:59;11.35;;;2.55;;
69629;SDS011;56857;52.212;5.496;2023-09-19T05:18:25;14.70;;;2.85;;
69629;SDS011;56857;52.212;5.496;2023-09-19T05:20:51;12.68;;;2.67;;
69629;SDS011;56857;52.212;5.496;2023-09-19T05:23:16;10.27;;;2.80;;
69629;SDS011;56857;52.212;5.496;2023-09-19T05:25:41;8.38;;;2.22;;
69629;SDS011;56857;52.212;5.496;2023-09-19T05:28:07;15.38;;;2.60;;
69629;SDS011;56857;52.212;5.496;2023-09-19T05:30:34;15.63;;;3.03;;
69629;SDS011;56857;52.212;5.496;2023-09-19T05:33:00;12.55;;;2.53;;
69629;SDS011;56857;52.212;5.496;2023-09-19T05:35:26;15.57;;;2.90;;
69629;SDS011;56857;52.212;5.496;2023-09-19T05:37:51;16.13;;;2.55;;
69629;SDS011;56857;52.212;5.496;2023-09-19T05:40:17;11.68;;;2.50;;
69629;SDS011;56857;52.212;5.496;2023-09-19T05:42:43;10.20;;;2.03;;
69629;SDS011;56857;52.212;5.496;2023-09-19T05:45:09;10.20;;;2.42;;
69629;SDS011;56857;52.212;5.496;2023-09-19T05:47:35;9.75;;;2.03;;
69629;SDS011;56857;52.212;5.496;2023-09-19T05:50:00;12.50;;;2.67;;
69629;SDS011;56857;52.212;5.496;2023-09-19T05:52:25;11.75;;;2.72;;
69629;SDS011;56857;52.212;5.496;2023-09-19T05:54:50;11.73;;;2.58;;
69629;SDS011;56857;52.212;5.496;2023-09-19T05:57:16;19.00;;;2.40;;
69629;SDS011;56857;52.212;5.496;2023-09-19T05:59:41;11.38;;;2.40;;
69629;SDS011;56857;52.212;5.496;2023-09-19T06:02:06;9.57;;;2.10;;
69629;SDS011;56857;52.212;5.496;2023-09-19T06:04:31;14.47;;;2.60;;
69629;SDS011;56857;52.212;5.496;2023-09-19T06:06:57;10.20;;;2.33;;
69629;SDS011;56857;52.212;5.496;2023-09-19T06:09:22;14.15;;;2.72;;
69629;SDS011;56857;52.212;5.496;2023-09-19T06:11:47;8.73;;;2.58;;
69629;SDS011;56857;52.212;5.496;2023-09-19T06:14:13;11.40;;;3.13;;
69629;SDS011;56857;52.212;5.496;2023-09-19T06:16:38;14.30;;;2.53;;
69629;SDS011;56857;52.212;5.496;2023-09-19T06:19:03;12.05;;;2.70;;
69629;SDS011;56857;52.212;5.496;2023-09-19T06:21:29;12.60;;;3.05;;
69629;SDS011;56857;52.212;5.496;2023-09-19T06:23:54;13.52;;;2.50;;
69629;SDS011;56857;52.212;5.496;2023-09-19T06:26:19;17.00;;;2.70;;
69629;SDS011;56857;52.212;5.496;2023-09-19T06:28:44;11.27;;;2.75;;
69629;SDS011;56857;52.212;5.496;2023-09-19T06:31:10;8.27;;;2.22;;
69629;SDS011;56857;52.212;5.496;2023-09-19T06:33:36;15.43;;;3.33;;
69629;SDS011;56857;52.212;5.496;2023-09-19T06:36:02;9.60;;;2.50;;
69629;SDS011;56857;52.212;5.496;2023-09-19T06:38:28;11.30;;;2.78;;
69629;SDS011;56857;52.212;5.496;2023-09-19T06:40:53;17.97;;;2.80;;
69629;SDS011;56857;52.212;5.496;2023-09-19T06:43:18;13.25;;;2.22;;
69629;SDS011;56857;52.212;5.496;2023-09-19T06:45:44;11.67;;;2.30;;
69629;SDS011;56857;52.212;5.496;2023-09-19T06:48:10;16.38;;;2.80;;
69629;SDS011;56857;52.212;5.496;2023-09-19T06:50:35;12.43;;;2.37;;
69629;SDS011;56857;52.212;5.496;2023-09-19T06:53:00;15.23;;;2.60;;
69629;SDS011;56857;52.212;5.496;2023-09-19T06:55:26;10.47;;;2.50;;
69629;SDS011;56857;52.212;5.496;2023-09-19T06:57:51;13.18;;;2.40;;
69629;SDS011;56857;52.212;5.496;2023-09-19T07:00:17;14.38;;;2.75;;
69629;SDS011;56857;52.212;5.496;2023-09-19T07:02:42;9.77;;;2.90;;
69629;SDS011;56857;52.212;5.496;2023-09-19T07:05:08;9.57;;;2.67;;
69629;SDS011;56857;52.212;5.496;2023-09-19T07:07:33;13.27;;;2.45;;
69629;SDS011;56857;52.212;5.496;2023-09-19T07:09:58;12.48;;;2.80;;
69629;SDS011;56857;52.212;5.496;2023-09-19T07:12:24;14.25;;;2.40;;
69629;SDS011;56857;52.212;5.496;2023-09-19T07:14:49;14.83;;;2.67;;
69629;SDS011;56857;52.212;5.496;2023-09-19T07:17:14;11.18;;;2.80;;
69629;SDS011;56857;52.212;5.496;2023-09-19T07:19:40;11.93;;;2.40;;
69629;SDS011;56857;52.212;5.496;2023-09-19T07:22:05;14.20;;;2.55;;
69629;SDS011;56857;52.212;5.496;2023-09-19T07:24:30;15.73;;;3.60;;
69629;SDS011;56857;52.212;5.496;2023-09-19T07:26:55;13.02;;;3.22;;
69629;SDS011;56857;52.212;5.496;2023-09-19T07:29:21;11.17;;;2.53;;
69629;SDS011;56857;52.212;5.496;2023-09-19T07:31:46;13.43;;;2.58;;
69629;SDS011;56857;52.212;5.496;2023-09-19T07:34:12;13.15;;;2.38;;
69629;SDS011;56857;52.212;5.496;2023-09-19T07:36:37;13.13;;;2.70;;
69629;SDS011;56857;52.212;5.496;2023-09-19T07:39:03;15.63;;;2.60;;
69629;SDS011;56857;52.212;5.496;2023-09-19T07:41:28;13.27;;;2.42;;
69629;SDS011;56857;52.212;5.496;2023-09-19T07:43:53;18.80;;;2.77;;
69629;SDS011;56857;52.212;5.496;2023-09-19T07:46:19;14.57;;;2.50;;
69629;SDS011;56857;52.212;5.496;2023-09-19T07:48:44;11.33;;;2.70;;
69629;SDS011;56857;52.212;5.496;2023-09-19T07:51:09;13.57;;;2.60;;
69629;SDS011;56857;52.212;5.496;2023-09-19T07:53:35;15.40;;;2.53;;
69629;SDS011;56857;52.212;5.496;2023-09-19T07:56:04;13.02;;;2.83;;
69629;SDS011;56857;52.212;5.496;2023-09-19T07:58:31;11.18;;;2.30;;
69629;SDS011;56857;52.212;5.496;2023-09-19T08:01:02;14.77;;;2.47;;
69629;SDS011;56857;52.212;5.496;2023-09-19T08:03:31;12.45;;;2.63;;
69629;SDS011;56857;52.212;5.496;2023-09-19T08:05:57;17.27;;;3.70;;
69629;SDS011;56857;52.212;5.496;2023-09-19T08:08:22;15.10;;;2.97;;
69629;SDS011;56857;52.212;5.496;2023-09-19T08:10:52;16.30;;;3.17;;
69629;SDS011;56857;52.212;5.496;2023-09-19T08:13:21;11.80;;;2.92;;
69629;SDS011;56857;52.212;5.496;2023-09-19T08:15:47;13.98;;;2.63;;
69629;SDS011;56857;52.212;5.496;2023-09-19T08:18:12;11.82;;;2.42;;
69629;SDS011;56857;52.212;5.496;2023-09-19T08:20:38;13.45;;;2.85;;
69629;SDS011;56857;52.212;5.496;2023-09-19T08:23:03;15.43;;;2.72;;
69629;SDS011;56857;52.212;5.496;2023-09-19T08:25:28;19.50;;;2.83;;
69629;SDS011;56857;52.212;5.496;2023-09-19T08:27:54;14.85;;;2.90;;
69629;SDS011;56857;52.212;5.496;2023-09-19T08:30:21;12.20;;;2.70;;
69629;SDS011;56857;52.212;5.496;2023-09-19T08:32:47;15.00;;;3.22;;
69629;SDS011;56857;52.212;5.496;2023-09-19T08:35:12;12.18;;;3.22;;
69629;SDS011;56857;52.212;5.496;2023-09-19T08:37:38;19.42;;;4.38;;
69629;SDS011;56857;52.212;5.496;2023-09-19T08:40:03;14.40;;;3.00;;
69629;SDS011;56857;52.212;5.496;2023-09-19T08:42:29;13.35;;;3.05;;
69629;SDS011;56857;52.212;5.496;2023-09-19T08:44:57;17.15;;;3.13;;
69629;SDS011;56857;52.212;5.496;2023-09-19T08:48:00;15.07;;;2.83;;
69629;SDS011;56857;52.212;5.496;2023-09-19T08:50:28;12.35;;;3.22;;
69629;SDS011;56857;52.212;5.496;2023-09-19T08:52:55;13.63;;;3.10;;
69629;SDS011;56857;52.212;5.496;2023-09-19T08:55:23;15.60;;;2.90;;
69629;SDS011;56857;52.212;5.496;2023-09-19T08:57:54;17.20;;;3.17;;
69629;SDS011;56857;52.212;5.496;2023-09-19T09:00:26;15.88;;;3.38;;
69629;SDS011;56857;52.212;5.496;2023-09-19T09:02:53;11.90;;;2.75;;
69629;SDS011;56857;52.212;5.496;2023-09-19T09:05:20;14.68;;;2.90;;
69629;SDS011;56857;52.212;5.496;2023-09-19T09:07:47;15.05;;;2.92;;
69629;SDS011;56857;52.212;5.496;2023-09-19T09:10:13;11.40;;;2.97;;
69629;SDS011;56857;52.212;5.496;2023-09-19T09:12:38;12.10;;;2.60;;
69629;SDS011;56857;52.212;5.496;2023-09-19T09:15:04;18.35;;;3.25;;
69629;SDS011;56857;52.212;5.496;2023-09-19T09:17:30;12.95;;;2.80;;
69629;SDS011;56857;52.212;5.496;2023-09-19T09:19:55;11.77;;;2.55;;
69629;SDS011;56857;52.212;5.496;2023-09-19T09:22:21;11.57;;;2.65;;
69629;SDS011;56857;52.212;5.496;2023-09-19T09:24:56;10.73;;;2.10;;
69629;SDS011;56857;52.212;5.496;2023-09-19T09:27:22;12.80;;;2.78;;
69629;SDS011;56857;52.212;5.496;2023-09-19T09:29:48;11.13;;;2.75;;
69629;SDS011;56857;52.212;5.496;2023-09-19T09:34:50;12.60;;;2.47;;
69629;SDS011;56857;52.212;5.496;2023-09-19T09:37:19;11.95;;;2.40;;
69629;SDS011;56857;52.212;5.496;2023-09-19T09:39:52;11.15;;;2.60;;
69629;SDS011;56857;52.212;5.496;2023-09-19T09:45:19;11.02;;;2.40;;
69629;SDS011;56857;52.212;5.496;2023-09-19T09:47:45;9.70;;;2.33;;
69629;SDS011;56857;52.212;5.496;2023-09-19T09:50:11;17.58;;;2.67;;
69629;SDS011;56857;52.212;5.496;2023-09-19T09:52:46;16.65;;;2.63;;
69629;SDS011;56857;52.212;5.496;2023-09-19T09:55:11;11.32;;;2.50;;
69629;SDS011;56857;52.212;5.496;2023-09-19T09:57:36;15.15;;;3.03;;
69629;SDS011;56857;52.212;5.496;2023-09-19T10:00:02;15.88;;;2.45;;
69629;SDS011;56857;52.212;5.496;2023-09-19T10:02:28;10.65;;;2.63;;
69629;SDS011;56857;52.212;5.496;2023-09-19T10:04:55;13.02;;;2.33;;
69629;SDS011;56857;52.212;5.496;2023-09-19T10:07:25;11.88;;;2.58;;
69629;SDS011;56857;52.212;5.496;2023-09-19T10:09:51;13.07;;;2.75;;
69629;SDS011;56857;52.212;5.496;2023-09-19T10:12:16;17.35;;;3.40;;
69629;SDS011;56857;52.212;5.496;2023-09-19T10:14:44;11.20;;;2.50;;
69629;SDS011;56857;52.212;5.496;2023-09-19T10:17:10;15.10;;;2.85;;
69629;SDS011;56857;52.212;5.496;2023-09-19T10:19:40;11.45;;;2.67;;
69629;SDS011;56857;52.212;5.496;2023-09-19T10:22:10;11.23;;;2.45;;
69629;SDS011;56857;52.212;5.496;2023-09-19T10:24:37;15.02;;;2.92;;
69629;SDS011;56857;52.212;5.496;2023-09-19T10:27:04;12.65;;;2.50;;
69629;SDS011;56857;52.212;5.496;2023-09-19T10:29:31;15.55;;;3.13;;
69629;SDS011;56857;52.212;5.496;2023-09-19T10:31:58;15.10;;;2.72;;
69629;SDS011;56857;52.212;5.496;2023-09-19T10:34:25;13.68;;;2.97;;
69629;SDS011;56857;52.212;5.496;2023-09-19T10:36:52;15.13;;;2.38;;
69629;SDS011;56857;52.212;5.496;2023-09-19T10:39:19;13.95;;;3.17;;
69629;SDS011;56857;52.212;5.496;2023-09-19T10:41:47;11.95;;;2.17;;
69629;SDS011;56857;52.212;5.496;2023-09-19T10:44:15;10.05;;;2.08;;
69629;SDS011;56857;52.212;5.496;2023-09-19T10:46:44;11.05;;;2.45;;
69629;SDS011;56857;52.212;5.496;2023-09-19T10:49:10;10.23;;;2.20;;
69629;SDS011;56857;52.212;5.496;2023-09-19T10:51:39;12.13;;;2.38;;
69629;SDS011;56857;52.212;5.496;2023-09-19T10:54:13;9.07;;;2.40;;
69629;SDS011;56857;52.212;5.496;2023-09-19T10:56:42;8.60;;;2.22;;
69629;SDS011;56857;52.212;5.496;2023-09-19T10:59:12;15.73;;;2.40;;
69629;SDS011;56857;52.212;5.496;2023-09-19T11:04:24;14.45;;;2.30;;
69629;SDS011;56857;52.212;5.496;2023-09-19T11:07:08;14.13;;;2.90;;
69629;SDS011;56857;52.212;5.496;2023-09-19T11:09:53;8.73;;;2.17;;
69629;SDS011;56857;52.212;5.496;2023-09-19T11:12:47;12.05;;;2.47;;
69629;SDS011;56857;52.212;5.496;2023-09-19T11:15:11;13.10;;;2.17;;
69629;SDS011;56857;52.212;5.496;2023-09-19T11:26:41;11.60;;;2.40;;
69629;SDS011;56857;52.212;5.496;2023-09-19T11:29:27;9.88;;;2.22;;
69629;SDS011;56857;52.212;5.496;2023-09-19T11:31:53;15.13;;;2.53;;
69629;SDS011;56857;52.212;5.496;2023-09-19T11:39:27;8.70;;;2.20;;
69629;SDS011;56857;52.212;5.496;2023-09-19T11:41:53;7.73;;;1.90;;
69629;SDS011;56857;52.212;5.496;2023-09-19T11:46:53;12.50;;;2.50;;
69629;SDS011;56857;52.212;5.496;2023-09-19T11:49:25;11.68;;;2.22;;
69629;SDS011;56857;52.212;5.496;2023-09-19T11:51:52;8.73;;;1.95;;
69629;SDS011;56857;52.212;5.496;2023-09-19T11:54:18;8.03;;;2.00;;
69629;SDS011;56857;52.212;5.496;2023-09-19T11:56:44;7.50;;;1.88;;
69629;SDS011;56857;52.212;5.496;2023-09-19T11:59:09;7.60;;;2.10;;
69629;SDS011;56857;52.212;5.496;2023-09-19T12:01:35;14.40;;;2.08;;
69629;SDS011;56857;52.212;5.496;2023-09-19T12:04:07;8.85;;;2.00;;
69629;SDS011;56857;52.212;5.496;2023-09-19T12:06:36;12.45;;;2.00;;
69629;SDS011;56857;52.212;5.496;2023-09-19T12:09:01;6.25;;;1.60;;
69629;SDS011;56857;52.212;5.496;2023-09-19T12:11:29;6.60;;;1.77;;
69629;SDS011;56857;52.212;5.496;2023-09-19T12:13:55;8.73;;;1.85;;
69629;SDS011;56857;52.212;5.496;2023-09-19T12:16:21;8.25;;;1.88;;
69629;SDS011;56857;52.212;5.496;2023-09-19T12:18:47;6.30;;;1.50;;
69629;SDS011;56857;52.212;5.496;2023-09-19T12:21:53;9.18;;;1.52;;
69629;SDS011;56857;52.212;5.496;2023-09-19T12:24:06;6.47;;;1.98;;
69629;SDS011;56857;52.212;5.496;2023-09-19T12:26:41;8.75;;;1.40;;
69629;SDS011;56857;52.212;5.496;2023-09-19T12:29:12;7.45;;;1.48;;
69629;SDS011;56857;52.212;5.496;2023-09-19T12:31:46;9.30;;;1.83;;
69629;SDS011;56857;52.212;5.496;2023-09-19T12:34:26;6.35;;;1.63;;
69629;SDS011;56857;52.212;5.496;2023-09-19T12:37:11;6.53;;;1.48;;
69629;SDS011;56857;52.212;5.496;2023-09-19T12:39:39;7.70;;;1.52;;
69629;SDS011;56857;52.212;5.496;2023-09-19T12:42:05;7.93;;;1.77;;
69629;SDS011;56857;52.212;5.496;2023-09-19T12:44:30;6.18;;;1.50;;
69629;SDS011;56857;52.212;5.496;2023-09-19T12:46:55;8.73;;;1.50;;
69629;SDS011;56857;52.212;5.496;2023-09-19T12:49:21;8.95;;;1.50;;
69629;SDS011;56857;52.212;5.496;2023-09-19T12:51:46;6.17;;;1.47;;
69629;SDS011;56857;52.212;5.496;2023-09-19T12:54:12;7.35;;;1.83;;
69629;SDS011;56857;52.212;5.496;2023-09-19T12:56:41;6.47;;;1.60;;
69629;SDS011;56857;52.212;5.496;2023-09-19T12:59:08;10.00;;;1.90;;
69629;SDS011;56857;52.212;5.496;2023-09-19T13:01:33;6.57;;;1.83;;
69629;SDS011;56857;52.212;5.496;2023-09-19T13:06:53;6.55;;;1.60;;
69629;SDS011;56857;52.212;5.496;2023-09-19T13:09:19;9.75;;;1.58;;
69629;SDS011;56857;52.212;5.496;2023-09-19T13:11:46;9.07;;;1.75;;
69629;SDS011;56857;52.212;5.496;2023-09-19T13:25:02;7.18;;;1.30;;
69629;SDS011;56857;52.212;5.496;2023-09-19T13:27:28;6.28;;;1.33;;
69629;SDS011;56857;52.212;5.496;2023-09-19T13:29:53;8.33;;;1.60;;
69629;SDS011;56857;52.212;5.496;2023-09-19T13:32:18;7.68;;;1.50;;
69629;SDS011;56857;52.212;5.496;2023-09-19T13:34:43;10.68;;;1.98;;
69629;SDS011;56857;52.212;5.496;2023-09-19T13:37:09;7.68;;;1.60;;
69629;SDS011;56857;52.212;5.496;2023-09-19T13:39:34;8.95;;;1.90;;
69629;SDS011;56857;52.212;5.496;2023-09-19T13:41:59;7.17;;;1.50;;
69629;SDS011;56857;52.212;5.496;2023-09-19T13:44:25;6.00;;;1.73;;
69629;SDS011;56857;52.212;5.496;2023-09-19T13:46:50;5.90;;;1.55;;
69629;SDS011;56857;52.212;5.496;2023-09-19T13:49:15;5.22;;;1.48;;
69629;SDS011;56857;52.212;5.496;2023-09-19T13:51:41;9.63;;;2.00;;
69629;SDS011;56857;52.212;5.496;2023-09-19T13:54:06;5.03;;;1.15;;
69629;SDS011;56857;52.212;5.496;2023-09-19T13:56:31;7.90;;;1.63;;
69629;SDS011;56857;52.212;5.496;2023-09-19T13:58:56;5.95;;;1.55;;
69629;SDS011;56857;52.212;5.496;2023-09-19T14:01:22;6.53;;;1.38;;
69629;SDS011;56857;52.212;5.496;2023-09-19T14:03:47;6.10;;;1.45;;
69629;SDS011;56857;52.212;5.496;2023-09-19T14:06:13;5.80;;;1.23;;
69629;SDS011;56857;52.212;5.496;2023-09-19T14:08:38;7.57;;;1.33;;
69629;SDS011;56857;52.212;5.496;2023-09-19T14:11:07;7.60;;;1.38;;
69629;SDS011;56857;52.212;5.496;2023-09-19T14:13:33;5.35;;;1.27;;
69629;SDS011;56857;52.212;5.496;2023-09-19T14:16:03;4.53;;;1.52;;
69629;SDS011;56857;52.212;5.496;2023-09-19T14:18:29;6.50;;;1.67;;
69629;SDS011;56857;52.212;5.496;2023-09-19T14:20:54;8.68;;;1.50;;
69629;SDS011;56857;52.212;5.496;2023-09-19T14:23:20;5.38;;;1.40;;
69629;SDS011;56857;52.212;5.496;2023-09-19T14:25:45;5.03;;;1.20;;
69629;SDS011;56857;52.212;5.496;2023-09-19T14:28:10;5.78;;;1.45;;
69629;SDS011;56857;52.212;5.496;2023-09-19T14:30:36;6.17;;;1.40;;
69629;SDS011;56857;52.212;5.496;2023-09-19T14:33:01;7.57;;;1.40;;
69629;SDS011;56857;52.212;5.496;2023-09-19T14:35:26;7.25;;;2.13;;
69629;SDS011;56857;52.212;5.496;2023-09-19T14:37:52;8.10;;;1.80;;
69629;SDS011;56857;52.212;5.496;2023-09-19T14:40:18;10.27;;;1.98;;
69629;SDS011;56857;52.212;5.496;2023-09-19T14:42:43;8.02;;;2.08;;
69629;SDS011;56857;52.212;5.496;2023-09-19T14:45:09;7.43;;;1.95;;
69629;SDS011;56857;52.212;5.496;2023-09-19T14:47:34;8.02;;;2.05;;
69629;SDS011;56857;52.212;5.496;2023-09-19T14:50:01;7.25;;;1.88;;
69629;SDS011;56857;52.212;5.496;2023-09-19T14:52:27;6.63;;;1.77;;
69629;SDS011;56857;52.212;5.496;2023-09-19T14:54:52;6.80;;;1.83;;
69629;SDS011;56857;52.212;5.496;2023-09-19T14:57:18;7.60;;;2.00;;
69629;SDS011;56857;52.212;5.496;2023-09-19T14:59:43;5.67;;;1.70;;
69629;SDS011;56857;52.212;5.496;2023-09-19T15:02:08;10.00;;;1.90;;
69629;SDS011;56857;52.212;5.496;2023-09-19T15:04:34;13.20;;;1.80;;
69629;SDS011;56857;52.212;5.496;2023-09-19T15:06:59;7.05;;;2.03;;
69629;SDS011;56857;52.212;5.496;2023-09-19T15:09:25;8.38;;;2.25;;
69629;SDS011;56857;52.212;5.496;2023-09-19T15:11:50;10.65;;;2.53;;
69629;SDS011;56857;52.212;5.496;2023-09-19T15:14:16;8.80;;;2.03;;
69629;SDS011;56857;52.212;5.496;2023-09-19T15:16:41;9.77;;;2.10;;
69629;SDS011;56857;52.212;5.496;2023-09-19T15:19:06;5.43;;;2.00;;
69629;SDS011;56857;52.212;5.496;2023-09-19T15:21:32;7.25;;;2.33;;
69629;SDS011;56857;52.212;5.496;2023-09-19T15:23:57;11.93;;;2.77;;
69629;SDS011;56857;52.212;5.496;2023-09-19T15:26:22;7.32;;;2.10;;
69629;SDS011;56857;52.212;5.496;2023-09-19T15:28:48;7.97;;;2.72;;
69629;SDS011;56857;52.212;5.496;2023-09-19T15:31:13;8.75;;;2.28;;
69629;SDS011;56857;52.212;5.496;2023-09-19T15:33:39;7.57;;;2.17;;
69629;SDS011;56857;52.212;5.496;2023-09-19T15:41:33;9.50;;;2.42;;